createdAt,value
2023-01-11T00:01:18.914Z,2.46
2023-01-11T00:03:45.241Z,2.33
2023-01-11T00:06:11.572Z,2.41
2023-01-11T00:08:37.902Z,2.28
2023-01-11T00:11:04.264Z,2.07
2023-01-11T00:13:30.590Z,2.30
2023-01-11T00:15:56.960Z,2.45
2023-01-11T00:18:23.283Z,2.53
2023-01-11T00:20:49.604Z,2.64
2023-01-11T00:23:15.904Z,2.54
2023-01-11T00:25:42.240Z,2.59
2023-01-11T00:28:08.597Z,2.54
2023-01-11T00:30:35.941Z,2.55
2023-01-11T00:33:02.322Z,2.73
2023-01-11T00:35:28.708Z,2.76
2023-01-11T00:37:55.100Z,2.77
2023-01-11T00:40:21.487Z,2.82
2023-01-11T00:43:17.303Z,2.85
2023-01-11T00:46:02.343Z,2.84
2023-01-11T00:48:28.692Z,2.88
2023-01-11T00:50:55.036Z,2.83
2023-01-11T00:53:21.401Z,2.91
2023-01-11T00:55:47.734Z,3.02
2023-01-11T00:58:14.086Z,3.02
2023-01-11T01:00:40.529Z,2.99
2023-01-11T01:03:06.857Z,3.09
2023-01-11T01:05:33.629Z,3.13
2023-01-11T01:07:59.935Z,3.15
2023-01-11T01:10:26.273Z,3.15
2023-01-11T01:13:11.488Z,3.14
2023-01-11T01:15:37.868Z,3.18
2023-01-11T01:18:04.186Z,3.18
2023-01-11T01:20:30.533Z,3.12
2023-01-11T01:22:56.886Z,3.22
2023-01-11T01:25:23.301Z,3.22
2023-01-11T01:27:49.617Z,3.24
2023-01-11T01:30:15.980Z,3.30
2023-01-11T01:32:42.350Z,3.31
2023-01-11T01:35:08.694Z,3.41
2023-01-11T01:37:35.164Z,3.49
2023-01-11T01:40:01.479Z,3.42
2023-01-11T01:42:27.873Z,3.46
2023-01-11T01:44:54.199Z,3.45
2023-01-11T01:47:20.511Z,3.45
2023-01-11T01:49:46.879Z,3.41
2023-01-11T01:52:13.204Z,3.34
2023-01-11T01:54:39.625Z,3.48
2023-01-11T01:57:05.959Z,3.42
2023-01-11T01:59:32.331Z,3.51
2023-01-11T02:01:58.706Z,3.52
2023-01-11T02:04:25.089Z,3.25
2023-01-11T02:06:51.475Z,3.38
2023-01-11T02:09:17.863Z,3.43
2023-01-11T02:11:45.127Z,3.42
2023-01-11T02:14:11.441Z,3.46
2023-01-11T02:16:38.385Z,3.34
2023-01-11T02:19:04.727Z,3.34
2023-01-11T02:21:31.044Z,3.41
2023-01-11T02:23:57.437Z,3.44
2023-01-11T02:26:23.740Z,3.42
2023-01-11T02:28:50.128Z,3.48
2023-01-11T02:31:16.497Z,3.51
2023-01-11T02:33:42.849Z,3.53
2023-01-11T02:36:09.690Z,3.56
2023-01-11T02:38:36.021Z,3.67
2023-01-11T02:41:02.359Z,3.72
2023-01-11T02:43:47.543Z,3.71
2023-01-11T02:46:13.924Z,3.75
2023-01-11T02:48:40.325Z,3.71
2023-01-11T02:51:06.654Z,3.77
2023-01-11T02:53:32.998Z,3.73
2023-01-11T02:55:59.323Z,3.69
2023-01-11T02:58:25.646Z,3.82
2023-01-11T03:00:51.939Z,3.83
2023-01-11T03:03:18.255Z,3.82
2023-01-11T03:05:44.613Z,3.81
2023-01-11T03:08:10.975Z,3.78
2023-01-11T03:10:37.363Z,3.74
2023-01-11T03:13:03.709Z,3.82
2023-01-11T03:15:30.261Z,3.79
2023-01-11T03:17:56.616Z,3.79
2023-01-11T03:20:22.976Z,3.82
2023-01-11T03:22:49.302Z,3.95
2023-01-11T03:25:15.651Z,3.94
2023-01-11T03:27:41.980Z,3.84
2023-01-11T03:30:08.339Z,3.86
2023-01-11T03:32:34.660Z,3.93
2023-01-11T03:35:00.967Z,3.81
2023-01-11T03:37:27.286Z,3.87
2023-01-11T03:39:53.615Z,3.87
2023-01-11T03:42:19.936Z,3.98
2023-01-11T03:44:46.264Z,4.01
2023-01-11T03:47:12.589Z,3.98
2023-01-11T03:49:38.936Z,3.92
2023-01-11T03:52:05.289Z,3.98
2023-01-11T03:54:31.598Z,4.00
2023-01-11T03:56:57.902Z,4.06
2023-01-11T03:59:24.265Z,3.96
2023-01-11T04:01:50.609Z,4.06
2023-01-11T04:04:16.959Z,4.02
2023-01-11T04:06:43.392Z,4.10
2023-01-11T04:09:09.734Z,4.05
2023-01-11T04:11:36.040Z,4.07
2023-01-11T04:14:02.393Z,4.03
2023-01-11T04:16:28.837Z,4.06
2023-01-11T04:18:55.183Z,4.05
2023-01-11T04:21:21.525Z,4.02
2023-01-11T04:23:47.845Z,4.09
2023-01-11T04:26:14.272Z,4.15
2023-01-11T04:28:40.614Z,4.09
2023-01-11T04:31:07.079Z,4.16
2023-01-11T04:33:33.436Z,4.16
2023-01-11T04:35:59.774Z,4.17
2023-01-11T04:38:27.277Z,4.25
2023-01-11T04:41:13.584Z,4.20
2023-01-11T04:43:39.918Z,4.22
2023-01-11T04:46:06.799Z,4.24
2023-01-11T04:48:33.730Z,4.28
2023-01-11T04:51:00.085Z,4.36
2023-01-11T04:53:26.421Z,4.41
2023-01-11T04:55:53.678Z,4.40
2023-01-11T04:58:20.009Z,4.48
2023-01-11T05:00:46.389Z,4.50
2023-01-11T05:03:12.762Z,4.50
2023-01-11T05:05:39.069Z,4.50
2023-01-11T05:08:05.432Z,4.50
2023-01-11T05:10:31.736Z,4.50
2023-01-11T05:12:58.060Z,4.64
2023-01-11T05:15:24.396Z,4.60
2023-01-11T05:17:50.710Z,4.59
2023-01-11T05:20:17.028Z,4.62
2023-01-11T05:22:43.401Z,4.68
2023-01-11T05:25:09.704Z,4.67
2023-01-11T05:27:36.067Z,4.72
2023-01-11T05:30:02.417Z,4.75
2023-01-11T05:32:28.785Z,4.72
2023-01-11T05:34:55.140Z,4.71
2023-01-11T05:37:21.462Z,4.69
2023-01-11T05:39:47.785Z,4.73
2023-01-11T05:42:14.169Z,4.77
2023-01-11T05:44:59.805Z,4.73
2023-01-11T05:47:26.129Z,4.76
2023-01-11T05:49:52.455Z,4.74
2023-01-11T05:52:18.782Z,4.80
2023-01-11T05:54:45.095Z,4.69
2023-01-11T05:57:12.017Z,4.81
2023-01-11T05:59:38.349Z,4.66
2023-01-11T06:02:04.679Z,4.67
2023-01-11T06:04:31.037Z,4.66
2023-01-11T06:06:57.426Z,4.63
2023-01-11T06:09:23.846Z,4.69
2023-01-11T06:11:50.690Z,4.74
2023-01-11T06:14:16.990Z,4.71
2023-01-11T06:16:43.331Z,4.84
2023-01-11T06:19:11.506Z,4.65
2023-01-11T06:21:38.880Z,4.70
2023-01-11T06:24:05.198Z,4.69
2023-01-11T06:26:32.387Z,4.72
2023-01-11T06:28:58.722Z,4.75
2023-01-11T06:31:25.118Z,4.75
2023-01-11T06:33:51.481Z,4.75
2023-01-11T06:36:17.821Z,4.72
2023-01-11T06:38:44.173Z,4.69
2023-01-11T06:41:10.637Z,4.75
2023-01-11T06:43:37.204Z,4.82
2023-01-11T06:46:03.572Z,4.78
2023-01-11T06:48:30.009Z,4.73
2023-01-11T06:50:56.426Z,4.72
2023-01-11T06:53:22.763Z,4.77
2023-01-11T06:55:49.117Z,4.83
2023-01-11T06:58:15.457Z,4.82
2023-01-11T07:00:42.009Z,4.76
2023-01-11T07:03:08.518Z,4.81
2023-01-11T07:05:34.923Z,4.87
2023-01-11T07:08:01.326Z,4.92
2023-01-11T07:10:27.655Z,4.97
2023-01-11T07:12:54.072Z,4.98
2023-01-11T07:15:20.445Z,4.94
2023-01-11T07:17:47.899Z,5.01
2023-01-11T07:20:14.258Z,5.07
2023-01-11T07:22:40.558Z,5.09
2023-01-11T07:25:06.916Z,5.07
2023-01-11T07:27:33.229Z,5.08
2023-01-11T07:30:02.644Z,5.03
2023-01-11T07:32:28.970Z,5.02
2023-01-11T07:34:55.371Z,5.11
2023-01-11T07:37:28.478Z,5.07
2023-01-11T07:39:55.752Z,5.10
2023-01-11T07:42:41.110Z,5.16
2023-01-11T07:45:07.433Z,5.07
2023-01-11T07:47:33.797Z,5.05
2023-01-11T07:50:00.147Z,5.09
2023-01-11T07:52:26.483Z,5.11
2023-01-11T07:54:52.831Z,5.15
2023-01-11T07:57:19.163Z,5.23
2023-01-11T07:59:45.557Z,5.28
2023-01-11T08:02:12.008Z,5.26
2023-01-11T08:04:38.341Z,5.39
2023-01-11T08:07:04.717Z,5.36
2023-01-11T08:09:31.021Z,5.37
2023-01-11T08:12:16.175Z,5.43
2023-01-11T08:14:42.585Z,5.58
2023-01-11T08:17:08.930Z,5.56
2023-01-11T08:19:35.409Z,5.69
2023-01-11T08:22:01.803Z,5.60
2023-01-11T08:24:28.190Z,5.78
2023-01-11T08:26:54.539Z,5.90
2023-01-11T08:29:20.883Z,5.92
2023-01-11T08:31:47.217Z,5.92
2023-01-11T08:34:13.546Z,5.88
2023-01-11T08:36:39.855Z,5.80
2023-01-11T08:39:06.147Z,5.79
2023-01-11T08:41:35.678Z,5.82
2023-01-11T08:44:02.206Z,5.81
2023-01-11T08:46:28.569Z,5.79
2023-01-11T08:48:54.889Z,5.81
2023-01-11T08:51:21.211Z,5.86
2023-01-11T08:53:47.585Z,5.92
2023-01-11T08:56:13.964Z,5.97
2023-01-11T08:58:40.289Z,5.99
2023-01-11T09:01:09.208Z,6.00
2023-01-11T09:03:35.547Z,5.97
2023-01-11T09:06:01.860Z,6.03
2023-01-11T09:08:28.187Z,6.06
2023-01-11T09:10:56.378Z,6.02
2023-01-11T09:13:22.699Z,6.02
2023-01-11T09:15:49.087Z,6.08
2023-01-11T09:18:15.403Z,6.05
2023-01-11T09:20:41.725Z,6.10
2023-01-11T09:23:08.026Z,6.15
2023-01-11T09:25:34.366Z,6.17
2023-01-11T09:28:00.696Z,6.15
2023-01-11T09:30:27.020Z,6.24
2023-01-11T09:32:54.522Z,6.24
2023-01-11T09:35:22.013Z,6.27
2023-01-11T09:37:49.256Z,6.31
2023-01-11T09:40:15.647Z,6.31
2023-01-11T09:42:43.187Z,6.33
2023-01-11T09:45:11.134Z,6.43
2023-01-11T09:47:38.565Z,6.41
2023-01-11T09:50:06.309Z,6.36
2023-01-11T09:52:36.265Z,6.45
2023-01-11T09:55:02.718Z,6.38
2023-01-11T09:57:30.967Z,6.59
2023-01-11T09:59:58.420Z,6.52
2023-01-11T10:02:24.770Z,6.53
2023-01-11T10:04:52.246Z,6.60
2023-01-11T10:07:19.806Z,6.59
2023-01-11T10:18:37.502Z,6.56
2023-01-11T10:18:44.371Z,6.57
2023-01-11T10:20:52.291Z,6.67
2023-01-11T10:23:18.642Z,6.62
2023-01-11T10:25:51.686Z,6.72
2023-01-11T10:28:23.192Z,6.85
2023-01-11T10:31:09.819Z,6.80
2023-01-11T10:33:54.994Z,6.86
2023-01-11T10:36:21.318Z,6.92
2023-01-11T10:38:47.633Z,6.92
2023-01-11T10:41:20.217Z,6.90
2023-01-11T10:43:46.592Z,7.00
2023-01-11T10:46:12.946Z,7.05
2023-01-11T10:48:39.464Z,7.18
2023-01-11T10:51:05.804Z,7.03
2023-01-11T10:53:32.133Z,7.14
2023-01-11T10:55:58.529Z,7.20
2023-01-11T10:58:24.849Z,7.08
2023-01-11T11:00:53.108Z,7.00
2023-01-11T11:03:19.490Z,7.05
2023-01-11T11:05:45.882Z,7.13
2023-01-11T11:08:13.784Z,7.19
2023-01-11T11:10:41.003Z,7.22
2023-01-11T11:13:07.364Z,7.28
2023-01-11T11:15:33.739Z,7.30
2023-01-11T11:18:00.084Z,7.42
2023-01-11T11:20:26.851Z,7.57
2023-01-11T11:22:53.181Z,7.43
2023-01-11T11:25:19.573Z,7.49
2023-01-11T11:27:46.007Z,7.55
2023-01-11T11:30:12.361Z,7.58
2023-01-11T11:32:38.660Z,7.45
2023-01-11T11:35:04.987Z,7.52
2023-01-11T11:37:31.336Z,7.43
2023-01-11T11:39:57.978Z,7.58
2023-01-11T11:42:24.360Z,7.61
2023-01-11T11:44:50.674Z,7.55
2023-01-11T11:47:16.986Z,7.74
2023-01-11T11:49:43.372Z,7.59
2023-01-11T11:52:09.680Z,7.88
2023-01-11T11:54:36.069Z,7.52
2023-01-11T11:57:02.465Z,7.40
2023-01-11T11:59:28.835Z,7.62
2023-01-11T12:01:55.200Z,7.56
2023-01-11T12:04:21.543Z,7.66
2023-01-11T12:06:49.234Z,7.61
2023-01-11T12:09:15.694Z,7.64
2023-01-11T12:11:43.033Z,7.46
2023-01-11T12:14:09.342Z,7.33
2023-01-11T12:16:35.723Z,7.43
2023-01-11T12:19:02.142Z,7.36
2023-01-11T12:21:30.261Z,7.39
2023-01-11T12:23:56.573Z,7.46
2023-01-11T12:26:22.968Z,7.43
2023-01-11T12:28:49.264Z,7.50
2023-01-11T12:31:15.804Z,7.61
2023-01-11T12:33:44.461Z,7.64
2023-01-11T12:36:10.777Z,7.62
2023-01-11T12:38:37.114Z,7.49
2023-01-11T12:41:03.430Z,7.76
2023-01-11T12:43:29.736Z,7.67
2023-01-11T12:45:56.177Z,7.70
2023-01-11T12:48:23.234Z,7.68
2023-01-11T12:50:49.568Z,7.82
2023-01-11T12:53:15.930Z,7.62
2023-01-11T12:55:42.246Z,7.76
2023-01-11T12:58:09.109Z,7.70
2023-01-11T13:00:35.467Z,7.74
2023-01-11T13:03:01.767Z,7.58
2023-01-11T13:05:28.091Z,7.51
2023-01-11T13:07:54.428Z,7.69
2023-01-11T13:10:20.774Z,7.68
2023-01-11T13:12:47.175Z,7.66
2023-01-11T13:15:13.517Z,7.60
2023-01-11T13:17:40.004Z,7.65
2023-01-11T13:20:06.339Z,7.63
2023-01-11T13:22:32.764Z,7.65
2023-01-11T13:24:59.076Z,7.62
2023-01-11T13:27:25.494Z,7.57
2023-01-11T13:29:51.956Z,7.60
2023-01-11T13:32:18.304Z,7.62
2023-01-11T13:34:46.680Z,7.61
2023-01-11T13:37:13.658Z,7.59
2023-01-11T13:39:40.301Z,7.65
2023-01-11T13:42:06.689Z,7.62
2023-01-11T13:44:36.938Z,7.73
2023-01-11T13:47:03.490Z,7.90
2023-01-11T13:49:29.817Z,7.97
2023-01-11T13:51:56.152Z,7.94
2023-01-11T13:54:22.488Z,8.10
2023-01-11T13:56:48.800Z,8.21
2023-01-11T13:59:15.125Z,8.25
2023-01-11T14:01:41.544Z,8.30
2023-01-11T14:04:07.910Z,8.35
2023-01-11T14:06:34.251Z,8.29
2023-01-11T14:09:00.614Z,8.32
2023-01-11T14:11:26.928Z,8.08
2023-01-11T14:14:12.093Z,8.04
2023-01-11T14:16:38.411Z,8.09
2023-01-11T14:19:04.762Z,8.06
2023-01-11T14:21:31.078Z,8.01
2023-01-11T14:23:57.430Z,7.91
2023-01-11T14:26:23.745Z,7.95
2023-01-11T14:28:50.252Z,7.97
2023-01-11T14:31:16.679Z,7.89
2023-01-11T14:33:43.206Z,7.88
2023-01-11T14:36:09.546Z,7.86
2023-01-11T14:38:35.885Z,7.89
2023-01-11T14:41:02.218Z,7.66
2023-01-11T14:43:28.539Z,7.81
2023-01-11T14:45:54.838Z,7.63
2023-01-11T14:48:21.189Z,7.70
2023-01-11T14:50:47.506Z,7.78
2023-01-11T14:53:13.837Z,7.83
2023-01-11T14:55:45.031Z,7.90
2023-01-11T14:58:11.387Z,7.82
2023-01-11T15:00:37.761Z,7.86
2023-01-11T15:03:04.077Z,7.89
2023-01-11T15:05:31.224Z,7.95
2023-01-11T15:07:57.556Z,8.00
2023-01-11T15:10:23.878Z,7.93
2023-01-11T15:12:50.226Z,7.96
2023-01-11T15:15:16.601Z,8.04
2023-01-11T15:18:01.788Z,7.90
2023-01-11T15:20:28.151Z,7.74
2023-01-11T15:22:54.489Z,7.64
2023-01-11T15:25:20.787Z,7.68
2023-01-11T15:27:47.463Z,7.54
2023-01-11T15:30:13.788Z,7.68
2023-01-11T15:32:41.525Z,7.70
2023-01-11T15:35:07.865Z,7.75
2023-01-11T15:37:34.189Z,7.67
2023-01-11T15:40:00.512Z,7.56
2023-01-11T15:42:26.831Z,7.54
2023-01-11T15:44:53.185Z,7.50
2023-01-11T15:47:19.512Z,7.65
2023-01-11T15:49:45.862Z,7.68
2023-01-11T15:52:12.192Z,7.69
2023-01-11T15:54:38.498Z,7.67
2023-01-11T15:57:04.855Z,7.63
2023-01-11T15:59:31.233Z,7.41
2023-01-11T16:01:57.575Z,7.50
2023-01-11T16:04:24.009Z,7.61
2023-01-11T16:06:50.373Z,7.70
2023-01-11T16:09:16.692Z,7.73
2023-01-11T16:11:43.008Z,7.75
2023-01-11T16:14:09.307Z,7.72
2023-01-11T16:16:39.240Z,7.69
2023-01-11T16:19:05.591Z,7.72
2023-01-11T16:21:31.933Z,7.66
2023-01-11T16:23:58.326Z,7.73
2023-01-11T16:26:24.735Z,7.63
2023-01-11T16:28:51.784Z,7.63
2023-01-11T16:31:18.160Z,7.68
2023-01-11T16:33:44.628Z,7.73
2023-01-11T16:36:11.245Z,7.57
2023-01-11T16:38:37.588Z,7.56
2023-01-11T16:41:06.820Z,7.55
2023-01-11T16:43:33.657Z,7.85
2023-01-11T16:46:00.068Z,7.60
2023-01-11T16:48:26.423Z,7.80
2023-01-11T16:50:52.757Z,7.84
2023-01-11T16:53:19.088Z,7.94
2023-01-11T16:55:45.463Z,7.95
2023-01-11T16:58:11.787Z,8.18
2023-01-11T17:00:38.506Z,8.15
2023-01-11T17:03:06.612Z,8.08
2023-01-11T17:05:32.961Z,8.25
2023-01-11T17:07:59.331Z,8.24
2023-01-11T17:10:25.714Z,8.37
2023-01-11T17:12:52.027Z,8.46
2023-01-11T17:15:18.377Z,8.55
2023-01-11T17:17:44.697Z,8.66
2023-01-11T17:20:11.141Z,8.52
2023-01-11T17:22:37.477Z,8.52
2023-01-11T17:25:03.823Z,8.61
2023-01-11T17:27:30.180Z,8.49
2023-01-11T17:29:56.511Z,8.54
2023-01-11T17:32:22.924Z,8.70
2023-01-11T17:34:49.255Z,8.58
2023-01-11T17:37:15.612Z,8.55
2023-01-11T17:39:43.852Z,8.62
2023-01-11T17:42:29.130Z,8.64
2023-01-11T17:45:13.716Z,8.69
2023-01-11T17:47:40.126Z,8.61
2023-01-11T17:50:06.437Z,8.75
2023-01-11T17:52:33.449Z,8.55
2023-01-11T17:55:00.674Z,8.61
2023-01-11T17:57:27.070Z,8.68
2023-01-11T17:59:53.473Z,8.79
2023-01-11T18:02:19.875Z,8.61
2023-01-11T18:04:46.214Z,8.66
2023-01-11T18:07:12.557Z,8.62
2023-01-11T18:09:38.972Z,8.71
2023-01-11T18:12:05.281Z,8.67
2023-01-11T18:14:31.582Z,8.73
2023-01-11T18:16:57.998Z,8.67
2023-01-11T18:19:24.401Z,8.74
2023-01-11T18:21:50.731Z,8.77
2023-01-11T18:24:17.033Z,8.63
2023-01-11T18:26:43.384Z,8.66
2023-01-11T18:29:09.695Z,8.59
2023-01-11T18:31:36.074Z,8.51
2023-01-11T18:34:02.412Z,8.49
2023-01-11T18:36:30.288Z,8.49
2023-01-11T18:38:56.602Z,8.58
2023-01-11T18:41:44.465Z,8.54
2023-01-11T18:44:11.002Z,8.50
2023-01-11T18:46:37.320Z,8.57
2023-01-11T18:49:03.654Z,8.68
2023-01-11T18:51:30.038Z,8.57
2023-01-11T18:53:56.390Z,8.54
2023-01-11T18:56:22.689Z,8.56
2023-01-11T18:58:48.990Z,8.53
2023-01-11T19:01:15.338Z,8.45
2023-01-11T19:03:43.765Z,8.46
2023-01-11T19:06:13.160Z,8.44
2023-01-11T19:08:39.484Z,8.51
2023-01-11T19:11:05.806Z,8.53
2023-01-11T19:13:32.162Z,8.64
2023-01-11T19:15:58.486Z,8.53
2023-01-11T19:18:24.854Z,8.66
2023-01-11T19:20:51.198Z,8.58
2023-01-11T19:23:17.513Z,8.60
2023-01-11T19:25:47.084Z,8.51
2023-01-11T19:28:13.587Z,8.58
2023-01-11T19:30:40.357Z,8.62
2023-01-11T19:33:06.693Z,8.61
2023-01-11T19:35:33.047Z,8.58
2023-01-11T19:37:59.385Z,8.60
2023-01-11T19:40:25.700Z,8.59
2023-01-11T19:42:52.529Z,8.65
2023-01-11T19:45:19.238Z,8.61
2023-01-11T19:47:47.132Z,8.67
2023-01-11T19:50:13.470Z,8.64
2023-01-11T19:52:39.816Z,8.58
2023-01-11T19:55:06.185Z,8.64
2023-01-11T19:57:32.521Z,8.54
2023-01-11T19:59:58.861Z,8.57
2023-01-11T20:02:25.370Z,8.59
2023-01-11T20:04:51.815Z,8.62
2023-01-11T20:07:18.167Z,8.55
2023-01-11T20:09:44.975Z,8.53
2023-01-11T20:12:11.347Z,8.60
2023-01-11T20:14:39.020Z,8.50
2023-01-11T20:17:05.383Z,8.49
2023-01-11T20:19:31.743Z,8.48
2023-01-11T20:21:58.153Z,8.37
2023-01-11T20:24:28.531Z,8.46
2023-01-11T20:26:54.845Z,8.38
2023-01-11T20:29:21.174Z,8.36
2023-01-11T20:31:49.290Z,8.42
2023-01-11T20:34:17.601Z,8.31
2023-01-11T20:36:43.908Z,8.33
2023-01-11T20:39:10.237Z,8.34
2023-01-11T20:41:49.140Z,8.35
2023-01-11T20:44:16.214Z,8.33
2023-01-11T20:46:42.572Z,8.25
2023-01-11T20:49:09.045Z,8.36
2023-01-11T20:51:35.420Z,8.28
2023-01-11T20:54:01.821Z,8.19
2023-01-11T20:56:28.142Z,8.25
2023-01-11T20:58:54.636Z,8.24
2023-01-11T21:01:25.999Z,8.25
2023-01-11T21:03:52.351Z,8.14
2023-01-11T21:06:18.695Z,8.20
2023-01-11T21:08:45.128Z,8.17
2023-01-11T21:11:11.456Z,8.04
2023-01-11T21:13:37.871Z,7.93
2023-01-11T21:16:04.341Z,8.05
2023-01-11T21:21:02.149Z,7.99
2023-01-11T21:23:28.524Z,8.01
2023-01-11T21:25:54.856Z,7.95
2023-01-11T21:28:21.177Z,7.85
2023-01-11T21:30:47.512Z,7.79
2023-01-11T21:33:13.836Z,7.90
2023-01-11T21:35:40.163Z,7.89
2023-01-11T21:38:06.455Z,7.87
2023-01-11T21:40:34.190Z,7.80
2023-01-11T21:43:00.510Z,7.75
2023-01-11T21:45:26.833Z,7.80
2023-01-11T21:47:53.163Z,7.82
2023-01-11T21:50:19.482Z,7.86
2023-01-11T21:52:45.879Z,7.80
2023-01-11T21:55:12.292Z,7.88
2023-01-11T21:57:38.624Z,7.85
2023-01-11T22:00:04.950Z,7.77
2023-01-11T22:02:31.356Z,7.72
2023-01-11T22:04:58.583Z,7.73
2023-01-11T22:07:30.805Z,7.78
2023-01-11T22:10:04.669Z,7.73
2023-01-11T22:12:31.370Z,7.71
2023-01-11T22:14:57.694Z,7.58
2023-01-11T22:17:24.045Z,7.60
2023-01-11T22:19:50.380Z,7.59
2023-01-11T22:22:16.725Z,7.56
2023-01-11T22:24:43.042Z,7.46
2023-01-11T22:27:09.387Z,7.52
2023-01-11T22:29:37.471Z,7.47
2023-01-11T22:32:04.447Z,7.46
2023-01-11T22:34:30.787Z,7.48
2023-01-11T22:36:57.161Z,7.43
2023-01-11T22:39:24.242Z,7.41
2023-01-11T22:41:51.365Z,7.39
2023-01-11T22:44:17.704Z,7.34
2023-01-11T22:46:44.103Z,7.36
2023-01-11T22:49:10.476Z,7.28
2023-01-11T22:51:36.822Z,7.24
2023-01-11T22:54:03.160Z,7.08
2023-01-11T22:56:29.566Z,7.20
2023-01-11T22:58:55.895Z,7.12
2023-01-11T23:01:22.248Z,7.05
2023-01-11T23:03:48.702Z,7.14
2023-01-11T23:06:15.066Z,7.19
2023-01-11T23:08:44.436Z,7.09
2023-01-11T23:11:11.645Z,7.04
2023-01-11T23:13:54.896Z,6.95
2023-01-11T23:16:21.239Z,6.88
2023-01-11T23:18:48.482Z,6.85
2023-01-11T23:21:14.803Z,6.89
2023-01-11T23:23:41.349Z,6.84
2023-01-11T23:26:07.704Z,6.68
2023-01-11T23:28:34.089Z,6.60
2023-01-11T23:31:00.467Z,6.59
2023-01-11T23:33:26.815Z,6.38
2023-01-11T23:35:53.138Z,6.44
2023-01-11T23:38:19.456Z,6.41
2023-01-11T23:41:04.747Z,6.40
2023-01-11T23:43:31.098Z,6.45
2023-01-11T23:46:17.431Z,6.34
2023-01-11T23:48:43.778Z,6.32
2023-01-11T23:51:10.253Z,6.28
2023-01-11T23:53:36.628Z,6.25
2023-01-11T23:56:03.001Z,6.30
2023-01-11T23:58:29.318Z,6.25
